sensor_id;sensor_type;location;lat;lon;timestamp;P1;durP1;ratioP1;P2;durP2;ratioP2
79592;SDS011;69074;45.164;9.704;2023-09-07T00:01:19;14.7;;;10.6;;
79592;SDS011;69074;45.164;9.704;2023-09-07T00:03:44;15.7;;;12.2;;
79592;SDS011;69074;45.164;9.704;2023-09-07T00:06:09;15.7;;;12.2;;
79592;SDS011;69074;45.164;9.704;2023-09-07T00:08:34;15.7;;;12.2;;
79592;SDS011;69074;45.164;9.704;2023-09-07T00:11:02;15.7;;;12.2;;
79592;SDS011;69074;45.164;9.704;2023-09-07T00:13:24;15.7;;;12.2;;
79592;SDS011;69074;45.164;9.704;2023-09-07T00:15:49;15.7;;;12.2;;
79592;SDS011;69074;45.164;9.704;2023-09-07T00:18:14;17.1;;;12.0;;
79592;SDS011;69074;45.164;9.704;2023-09-07T00:20:39;17.1;;;12.0;;
79592;SDS011;69074;45.164;9.704;2023-09-07T00:23:04;17.1;;;12.0;;
79592;SDS011;69074;45.164;9.704;2023-09-07T00:25:29;17.1;;;12.0;;
79592;SDS011;69074;45.164;9.704;2023-09-07T00:27:54;17.1;;;12.0;;
79592;SDS011;69074;45.164;9.704;2023-09-07T00:30:19;17.1;;;12.0;;
79592;SDS011;69074;45.164;9.704;2023-09-07T00:32:44;15.5;;;13.8;;
79592;SDS011;69074;45.164;9.704;2023-09-07T00:35:09;15.5;;;13.8;;
79592;SDS011;69074;45.164;9.704;2023-09-07T00:37:34;15.5;;;13.8;;
79592;SDS011;69074;45.164;9.704;2023-09-07T00:39:59;15.5;;;13.8;;
79592;SDS011;69074;45.164;9.704;2023-09-07T00:42:24;15.5;;;13.8;;
79592;SDS011;69074;45.164;9.704;2023-09-07T00:44:49;15.5;;;13.8;;
79592;SDS011;69074;45.164;9.704;2023-09-07T00:47:14;16.9;;;13.2;;
79592;SDS011;69074;45.164;9.704;2023-09-07T00:49:39;16.9;;;13.2;;
79592;SDS011;69074;45.164;9.704;2023-09-07T00:52:04;16.9;;;13.2;;
79592;SDS011;69074;45.164;9.704;2023-09-07T00:54:29;16.9;;;13.2;;
79592;SDS011;69074;45.164;9.704;2023-09-07T00:56:54;16.9;;;13.2;;
79592;SDS011;69074;45.164;9.704;2023-09-07T00:59:19;16.9;;;13.2;;
79592;SDS011;69074;45.164;9.704;2023-09-07T01:01:44;16.9;;;13.2;;
79592;SDS011;69074;45.164;9.704;2023-09-07T01:04:09;15.9;;;11.9;;
79592;SDS011;69074;45.164;9.704;2023-09-07T01:06:35;15.9;;;11.9;;
79592;SDS011;69074;45.164;9.704;2023-09-07T01:09:00;15.9;;;11.9;;
79592;SDS011;69074;45.164;9.704;2023-09-07T01:11:24;15.9;;;11.9;;
79592;SDS011;69074;45.164;9.704;2023-09-07T01:13:49;15.9;;;11.9;;
79592;SDS011;69074;45.164;9.704;2023-09-07T01:16:14;15.9;;;11.9;;
79592;SDS011;69074;45.164;9.704;2023-09-07T01:18:39;10.6;;;9.0;;
79592;SDS011;69074;45.164;9.704;2023-09-07T01:21:04;10.6;;;9.0;;
79592;SDS011;69074;45.164;9.704;2023-09-07T01:23:29;10.6;;;9.0;;
79592;SDS011;69074;45.164;9.704;2023-09-07T01:25:54;10.6;;;9.0;;
79592;SDS011;69074;45.164;9.704;2023-09-07T01:28:19;10.6;;;9.0;;
79592;SDS011;69074;45.164;9.704;2023-09-07T01:30:45;10.6;;;9.0;;
79592;SDS011;69074;45.164;9.704;2023-09-07T01:33:09;11.1;;;8.5;;
79592;SDS011;69074;45.164;9.704;2023-09-07T01:35:34;11.1;;;8.5;;
79592;SDS011;69074;45.164;9.704;2023-09-07T01:37:59;11.1;;;8.5;;
79592;SDS011;69074;45.164;9.704;2023-09-07T01:40:24;11.1;;;8.5;;
79592;SDS011;69074;45.164;9.704;2023-09-07T01:42:49;11.1;;;8.5;;
79592;SDS011;69074;45.164;9.704;2023-09-07T01:45:14;11.1;;;8.5;;
79592;SDS011;69074;45.164;9.704;2023-09-07T01:47:39;8.9;;;8.0;;
79592;SDS011;69074;45.164;9.704;2023-09-07T01:50:04;8.9;;;8.0;;
79592;SDS011;69074;45.164;9.704;2023-09-07T01:52:29;8.9;;;8.0;;
79592;SDS011;69074;45.164;9.704;2023-09-07T01:54:55;8.9;;;8.0;;
79592;SDS011;69074;45.164;9.704;2023-09-07T01:57:19;8.9;;;8.0;;
79592;SDS011;69074;45.164;9.704;2023-09-07T01:59:44;8.9;;;8.0;;
79592;SDS011;69074;45.164;9.704;2023-09-07T02:02:09;15.1;;;9.4;;
79592;SDS011;69074;45.164;9.704;2023-09-07T02:04:34;15.1;;;9.4;;
79592;SDS011;69074;45.164;9.704;2023-09-07T02:06:59;15.1;;;9.4;;
79592;SDS011;69074;45.164;9.704;2023-09-07T02:09:24;15.1;;;9.4;;
79592;SDS011;69074;45.164;9.704;2023-09-07T02:11:49;15.1;;;9.4;;
79592;SDS011;69074;45.164;9.704;2023-09-07T02:14:15;15.1;;;9.4;;
79592;SDS011;69074;45.164;9.704;2023-09-07T02:16:39;15.1;;;9.4;;
79592;SDS011;69074;45.164;9.704;2023-09-07T02:19:05;11.5;;;9.7;;
79592;SDS011;69074;45.164;9.704;2023-09-07T02:21:29;11.5;;;9.7;;
79592;SDS011;69074;45.164;9.704;2023-09-07T02:23:54;11.5;;;9.7;;
79592;SDS011;69074;45.164;9.704;2023-09-07T02:26:19;11.5;;;9.7;;
79592;SDS011;69074;45.164;9.704;2023-09-07T02:28:44;11.5;;;9.7;;
79592;SDS011;69074;45.164;9.704;2023-09-07T02:31:09;11.5;;;9.7;;
79592;SDS011;69074;45.164;9.704;2023-09-07T02:33:34;18.5;;;12.2;;
79592;SDS011;69074;45.164;9.704;2023-09-07T02:35:59;18.5;;;12.2;;
79592;SDS011;69074;45.164;9.704;2023-09-07T02:38:24;18.5;;;12.2;;
79592;SDS011;69074;45.164;9.704;2023-09-07T02:40:49;18.5;;;12.2;;
79592;SDS011;69074;45.164;9.704;2023-09-07T02:43:14;18.5;;;12.2;;
79592;SDS011;69074;45.164;9.704;2023-09-07T02:45:39;18.5;;;12.2;;
79592;SDS011;69074;45.164;9.704;2023-09-07T02:48:05;20.3;;;14.6;;
79592;SDS011;69074;45.164;9.704;2023-09-07T02:50:31;20.3;;;14.6;;
79592;SDS011;69074;45.164;9.704;2023-09-07T02:52:54;20.3;;;14.6;;
79592;SDS011;69074;45.164;9.704;2023-09-07T02:55:19;20.3;;;14.6;;
79592;SDS011;69074;45.164;9.704;2023-09-07T02:57:44;20.3;;;14.6;;
79592;SDS011;69074;45.164;9.704;2023-09-07T03:00:10;20.3;;;14.6;;
79592;SDS011;69074;45.164;9.704;2023-09-07T03:02:34;19.7;;;16.2;;
79592;SDS011;69074;45.164;9.704;2023-09-07T03:04:59;19.7;;;16.2;;
79592;SDS011;69074;45.164;9.704;2023-09-07T03:07:24;19.7;;;16.2;;
79592;SDS011;69074;45.164;9.704;2023-09-07T03:09:51;19.7;;;16.2;;
79592;SDS011;69074;45.164;9.704;2023-09-07T03:12:14;19.7;;;16.2;;
79592;SDS011;69074;45.164;9.704;2023-09-07T03:14:42;19.7;;;16.2;;
79592;SDS011;69074;45.164;9.704;2023-09-07T03:17:05;25.6;;;20.0;;
79592;SDS011;69074;45.164;9.704;2023-09-07T03:19:29;25.6;;;20.0;;
79592;SDS011;69074;45.164;9.704;2023-09-07T03:21:55;25.6;;;20.0;;
79592;SDS011;69074;45.164;9.704;2023-09-07T03:24:19;25.6;;;20.0;;
79592;SDS011;69074;45.164;9.704;2023-09-07T03:26:44;25.6;;;20.0;;
79592;SDS011;69074;45.164;9.704;2023-09-07T03:29:10;25.6;;;20.0;;
79592;SDS011;69074;45.164;9.704;2023-09-07T03:31:35;25.6;;;20.0;;
79592;SDS011;69074;45.164;9.704;2023-09-07T03:34:00;25.5;;;21.2;;
79592;SDS011;69074;45.164;9.704;2023-09-07T03:36:25;25.5;;;21.2;;
79592;SDS011;69074;45.164;9.704;2023-09-07T03:38:50;25.5;;;21.2;;
79592;SDS011;69074;45.164;9.704;2023-09-07T03:41:15;25.5;;;21.2;;
79592;SDS011;69074;45.164;9.704;2023-09-07T03:43:40;25.5;;;21.2;;
79592;SDS011;69074;45.164;9.704;2023-09-07T03:46:05;25.5;;;21.2;;
79592;SDS011;69074;45.164;9.704;2023-09-07T03:48:30;25.1;;;21.4;;
79592;SDS011;69074;45.164;9.704;2023-09-07T03:50:55;25.1;;;21.4;;
79592;SDS011;69074;45.164;9.704;2023-09-07T03:53:20;25.1;;;21.4;;
79592;SDS011;69074;45.164;9.704;2023-09-07T03:55:45;25.1;;;21.4;;
79592;SDS011;69074;45.164;9.704;2023-09-07T03:58:10;25.1;;;21.4;;
79592;SDS011;69074;45.164;9.704;2023-09-07T04:00:37;25.1;;;21.4;;
79592;SDS011;69074;45.164;9.704;2023-09-07T04:03:00;29.1;;;22.4;;
79592;SDS011;69074;45.164;9.704;2023-09-07T04:05:25;29.1;;;22.4;;
79592;SDS011;69074;45.164;9.704;2023-09-07T04:07:50;29.1;;;22.4;;
79592;SDS011;69074;45.164;9.704;2023-09-07T04:10:15;29.1;;;22.4;;
79592;SDS011;69074;45.164;9.704;2023-09-07T04:12:40;29.1;;;22.4;;
79592;SDS011;69074;45.164;9.704;2023-09-07T04:15:05;29.1;;;22.4;;
79592;SDS011;69074;45.164;9.704;2023-09-07T04:17:30;26.9;;;22.7;;
79592;SDS011;69074;45.164;9.704;2023-09-07T04:19:55;26.9;;;22.7;;
79592;SDS011;69074;45.164;9.704;2023-09-07T04:22:20;26.9;;;22.7;;
79592;SDS011;69074;45.164;9.704;2023-09-07T04:24:47;26.9;;;22.7;;
79592;SDS011;69074;45.164;9.704;2023-09-07T04:27:10;26.9;;;22.7;;
79592;SDS011;69074;45.164;9.704;2023-09-07T04:29:35;26.9;;;22.7;;
79592;SDS011;69074;45.164;9.704;2023-09-07T04:32:00;25.7;;;22.8;;
79592;SDS011;69074;45.164;9.704;2023-09-07T04:34:25;25.7;;;22.8;;
79592;SDS011;69074;45.164;9.704;2023-09-07T04:36:50;25.7;;;22.8;;
79592;SDS011;69074;45.164;9.704;2023-09-07T04:39:15;25.7;;;22.8;;
79592;SDS011;69074;45.164;9.704;2023-09-07T04:41:40;25.7;;;22.8;;
79592;SDS011;69074;45.164;9.704;2023-09-07T04:44:05;25.7;;;22.8;;
79592;SDS011;69074;45.164;9.704;2023-09-07T04:46:30;25.7;;;22.8;;
79592;SDS011;69074;45.164;9.704;2023-09-07T04:48:55;26.5;;;22.5;;
79592;SDS011;69074;45.164;9.704;2023-09-07T04:51:20;26.5;;;22.5;;
79592;SDS011;69074;45.164;9.704;2023-09-07T04:53:45;26.5;;;22.5;;
79592;SDS011;69074;45.164;9.704;2023-09-07T04:56:10;26.5;;;22.5;;
79592;SDS011;69074;45.164;9.704;2023-09-07T04:58:35;26.5;;;22.5;;
79592;SDS011;69074;45.164;9.704;2023-09-07T05:01:01;26.5;;;22.5;;
79592;SDS011;69074;45.164;9.704;2023-09-07T05:03:25;29.4;;;24.7;;
79592;SDS011;69074;45.164;9.704;2023-09-07T05:05:50;29.4;;;24.7;;
79592;SDS011;69074;45.164;9.704;2023-09-07T05:08:15;29.4;;;24.7;;
79592;SDS011;69074;45.164;9.704;2023-09-07T05:10:40;29.4;;;24.7;;
79592;SDS011;69074;45.164;9.704;2023-09-07T05:13:05;29.4;;;24.7;;
79592;SDS011;69074;45.164;9.704;2023-09-07T05:15:30;29.4;;;24.7;;
79592;SDS011;69074;45.164;9.704;2023-09-07T05:17:55;25.5;;;20.9;;
79592;SDS011;69074;45.164;9.704;2023-09-07T05:20:20;25.5;;;20.9;;
79592;SDS011;69074;45.164;9.704;2023-09-07T05:22:45;25.5;;;20.9;;
79592;SDS011;69074;45.164;9.704;2023-09-07T05:25:10;25.5;;;20.9;;
79592;SDS011;69074;45.164;9.704;2023-09-07T05:27:35;25.5;;;20.9;;
79592;SDS011;69074;45.164;9.704;2023-09-07T05:30:00;25.5;;;20.9;;
79592;SDS011;69074;45.164;9.704;2023-09-07T05:32:25;15.1;;;12.3;;
79592;SDS011;69074;45.164;9.704;2023-09-07T05:34:50;15.1;;;12.3;;
79592;SDS011;69074;45.164;9.704;2023-09-07T05:37:15;15.1;;;12.3;;
79592;SDS011;69074;45.164;9.704;2023-09-07T05:39:40;15.1;;;12.3;;
79592;SDS011;69074;45.164;9.704;2023-09-07T05:42:05;15.1;;;12.3;;
79592;SDS011;69074;45.164;9.704;2023-09-07T05:44:30;15.1;;;12.3;;
79592;SDS011;69074;45.164;9.704;2023-09-07T05:46:55;15.1;;;12.3;;
79592;SDS011;69074;45.164;9.704;2023-09-07T05:49:20;11.4;;;8.5;;
79592;SDS011;69074;45.164;9.704;2023-09-07T05:51:45;11.4;;;8.5;;
79592;SDS011;69074;45.164;9.704;2023-09-07T05:54:10;11.4;;;8.5;;
79592;SDS011;69074;45.164;9.704;2023-09-07T05:56:35;11.4;;;8.5;;
79592;SDS011;69074;45.164;9.704;2023-09-07T05:59:00;11.4;;;8.5;;
79592;SDS011;69074;45.164;9.704;2023-09-07T06:01:25;11.4;;;8.5;;
79592;SDS011;69074;45.164;9.704;2023-09-07T06:03:50;8.0;;;6.8;;
79592;SDS011;69074;45.164;9.704;2023-09-07T06:06:15;8.0;;;6.8;;
79592;SDS011;69074;45.164;9.704;2023-09-07T06:08:40;8.0;;;6.8;;
79592;SDS011;69074;45.164;9.704;2023-09-07T06:11:05;8.0;;;6.8;;
79592;SDS011;69074;45.164;9.704;2023-09-07T06:13:30;8.0;;;6.8;;
79592;SDS011;69074;45.164;9.704;2023-09-07T06:15:55;8.0;;;6.8;;
79592;SDS011;69074;45.164;9.704;2023-09-07T06:18:20;12.1;;;8.3;;
79592;SDS011;69074;45.164;9.704;2023-09-07T06:20:45;12.1;;;8.3;;
79592;SDS011;69074;45.164;9.704;2023-09-07T06:23:10;12.1;;;8.3;;
79592;SDS011;69074;45.164;9.704;2023-09-07T06:25:35;12.1;;;8.3;;
79592;SDS011;69074;45.164;9.704;2023-09-07T06:28:00;12.1;;;8.3;;
79592;SDS011;69074;45.164;9.704;2023-09-07T06:30:25;12.1;;;8.3;;
79592;SDS011;69074;45.164;9.704;2023-09-07T06:32:50;21.5;;;11.1;;
79592;SDS011;69074;45.164;9.704;2023-09-07T06:35:15;21.5;;;11.1;;
79592;SDS011;69074;45.164;9.704;2023-09-07T06:37:40;21.5;;;11.1;;
79592;SDS011;69074;45.164;9.704;2023-09-07T06:40:06;21.5;;;11.1;;
79592;SDS011;69074;45.164;9.704;2023-09-07T06:42:30;21.5;;;11.1;;
79592;SDS011;69074;45.164;9.704;2023-09-07T06:44:55;21.5;;;11.1;;
79592;SDS011;69074;45.164;9.704;2023-09-07T06:47:20;13.2;;;9.1;;
79592;SDS011;69074;45.164;9.704;2023-09-07T06:49:45;13.2;;;9.1;;
79592;SDS011;69074;45.164;9.704;2023-09-07T06:52:10;13.2;;;9.1;;
79592;SDS011;69074;45.164;9.704;2023-09-07T06:54:35;13.2;;;9.1;;
79592;SDS011;69074;45.164;9.704;2023-09-07T06:57:00;13.2;;;9.1;;
79592;SDS011;69074;45.164;9.704;2023-09-07T06:59:25;13.2;;;9.1;;
79592;SDS011;69074;45.164;9.704;2023-09-07T07:01:50;13.2;;;9.1;;
79592;SDS011;69074;45.164;9.704;2023-09-07T07:04:15;9.8;;;7.1;;
79592;SDS011;69074;45.164;9.704;2023-09-07T07:06:40;9.8;;;7.1;;
79592;SDS011;69074;45.164;9.704;2023-09-07T07:09:05;9.8;;;7.1;;
79592;SDS011;69074;45.164;9.704;2023-09-07T07:11:30;9.8;;;7.1;;
79592;SDS011;69074;45.164;9.704;2023-09-07T07:13:55;9.8;;;7.1;;
79592;SDS011;69074;45.164;9.704;2023-09-07T07:16:21;9.8;;;7.1;;
79592;SDS011;69074;45.164;9.704;2023-09-07T07:18:46;9.9;;;6.5;;
79592;SDS011;69074;45.164;9.704;2023-09-07T07:21:10;9.9;;;6.5;;
79592;SDS011;69074;45.164;9.704;2023-09-07T07:23:36;9.9;;;6.5;;
79592;SDS011;69074;45.164;9.704;2023-09-07T07:26:00;9.9;;;6.5;;
79592;SDS011;69074;45.164;9.704;2023-09-07T07:28:26;9.9;;;6.5;;
79592;SDS011;69074;45.164;9.704;2023-09-07T07:30:51;9.9;;;6.5;;
79592;SDS011;69074;45.164;9.704;2023-09-07T07:33:16;11.4;;;5.8;;
79592;SDS011;69074;45.164;9.704;2023-09-07T07:35:41;11.4;;;5.8;;
79592;SDS011;69074;45.164;9.704;2023-09-07T07:38:06;11.4;;;5.8;;
79592;SDS011;69074;45.164;9.704;2023-09-07T07:40:31;11.4;;;5.8;;
79592;SDS011;69074;45.164;9.704;2023-09-07T07:42:56;11.4;;;5.8;;
79592;SDS011;69074;45.164;9.704;2023-09-07T07:45:21;11.4;;;5.8;;
79592;SDS011;69074;45.164;9.704;2023-09-07T07:47:46;9.1;;;5.4;;
79592;SDS011;69074;45.164;9.704;2023-09-07T07:50:11;9.1;;;5.4;;
79592;SDS011;69074;45.164;9.704;2023-09-07T07:52:36;9.1;;;5.4;;
79592;SDS011;69074;45.164;9.704;2023-09-07T07:55:01;9.1;;;5.4;;
79592;SDS011;69074;45.164;9.704;2023-09-07T07:57:26;9.1;;;5.4;;
79592;SDS011;69074;45.164;9.704;2023-09-07T07:59:51;9.1;;;5.4;;
79592;SDS011;69074;45.164;9.704;2023-09-07T08:02:16;8.1;;;5.3;;
79592;SDS011;69074;45.164;9.704;2023-09-07T08:04:41;8.1;;;5.3;;
79592;SDS011;69074;45.164;9.704;2023-09-07T08:07:06;8.1;;;5.3;;
79592;SDS011;69074;45.164;9.704;2023-09-07T08:09:31;8.1;;;5.3;;
79592;SDS011;69074;45.164;9.704;2023-09-07T08:11:56;8.1;;;5.3;;
79592;SDS011;69074;45.164;9.704;2023-09-07T08:14:21;8.1;;;5.3;;
79592;SDS011;69074;45.164;9.704;2023-09-07T08:16:46;8.1;;;5.3;;
79592;SDS011;69074;45.164;9.704;2023-09-07T08:19:11;7.7;;;5.4;;
79592;SDS011;69074;45.164;9.704;2023-09-07T08:21:36;7.7;;;5.4;;
79592;SDS011;69074;45.164;9.704;2023-09-07T08:24:01;7.7;;;5.4;;
79592;SDS011;69074;45.164;9.704;2023-09-07T08:26:26;7.7;;;5.4;;
79592;SDS011;69074;45.164;9.704;2023-09-07T08:28:51;7.7;;;5.4;;
79592;SDS011;69074;45.164;9.704;2023-09-07T08:31:16;7.7;;;5.4;;
79592;SDS011;69074;45.164;9.704;2023-09-07T08:33:41;8.2;;;5.4;;
79592;SDS011;69074;45.164;9.704;2023-09-07T08:36:06;8.2;;;5.4;;
79592;SDS011;69074;45.164;9.704;2023-09-07T08:38:31;8.2;;;5.4;;
79592;SDS011;69074;45.164;9.704;2023-09-07T08:40:59;8.2;;;5.4;;
79592;SDS011;69074;45.164;9.704;2023-09-07T08:43:21;8.2;;;5.4;;
79592;SDS011;69074;45.164;9.704;2023-09-07T08:45:48;8.2;;;5.4;;
79592;SDS011;69074;45.164;9.704;2023-09-07T08:48:11;5.9;;;4.8;;
79592;SDS011;69074;45.164;9.704;2023-09-07T08:50:36;5.9;;;4.8;;
79592;SDS011;69074;45.164;9.704;2023-09-07T08:53:01;5.9;;;4.8;;
79592;SDS011;69074;45.164;9.704;2023-09-07T08:55:26;5.9;;;4.8;;
79592;SDS011;69074;45.164;9.704;2023-09-07T08:57:51;5.9;;;4.8;;
79592;SDS011;69074;45.164;9.704;2023-09-07T09:00:16;5.9;;;4.8;;
79592;SDS011;69074;45.164;9.704;2023-09-07T09:02:41;5.3;;;4.8;;
79592;SDS011;69074;45.164;9.704;2023-09-07T09:05:06;5.3;;;4.8;;
79592;SDS011;69074;45.164;9.704;2023-09-07T09:07:31;5.3;;;4.8;;
79592;SDS011;69074;45.164;9.704;2023-09-07T09:10:02;5.3;;;4.8;;
79592;SDS011;69074;45.164;9.704;2023-09-07T09:12:21;5.3;;;4.8;;
79592;SDS011;69074;45.164;9.704;2023-09-07T09:14:46;5.3;;;4.8;;
79592;SDS011;69074;45.164;9.704;2023-09-07T09:17:11;7.3;;;4.7;;
79592;SDS011;69074;45.164;9.704;2023-09-07T09:19:36;7.3;;;4.7;;
79592;SDS011;69074;45.164;9.704;2023-09-07T09:22:01;7.3;;;4.7;;
79592;SDS011;69074;45.164;9.704;2023-09-07T09:24:26;7.3;;;4.7;;
79592;SDS011;69074;45.164;9.704;2023-09-07T09:26:51;7.3;;;4.7;;
79592;SDS011;69074;45.164;9.704;2023-09-07T09:29:16;7.3;;;4.7;;
79592;SDS011;69074;45.164;9.704;2023-09-07T09:31:41;7.3;;;4.7;;
79592;SDS011;69074;45.164;9.704;2023-09-07T09:34:06;4.5;;;3.9;;
79592;SDS011;69074;45.164;9.704;2023-09-07T09:36:33;4.5;;;3.9;;
79592;SDS011;69074;45.164;9.704;2023-09-07T09:38:56;4.5;;;3.9;;
79592;SDS011;69074;45.164;9.704;2023-09-07T09:41:21;4.5;;;3.9;;
79592;SDS011;69074;45.164;9.704;2023-09-07T09:43:46;4.5;;;3.9;;
79592;SDS011;69074;45.164;9.704;2023-09-07T09:46:11;4.5;;;3.9;;
79592;SDS011;69074;45.164;9.704;2023-09-07T09:48:36;4.9;;;4.3;;
79592;SDS011;69074;45.164;9.704;2023-09-07T09:51:01;4.9;;;4.3;;
79592;SDS011;69074;45.164;9.704;2023-09-07T09:53:26;4.9;;;4.3;;
79592;SDS011;69074;45.164;9.704;2023-09-07T09:55:51;4.9;;;4.3;;
79592;SDS011;69074;45.164;9.704;2023-09-07T09:58:16;4.9;;;4.3;;
79592;SDS011;69074;45.164;9.704;2023-09-07T10:00:42;4.9;;;4.3;;
79592;SDS011;69074;45.164;9.704;2023-09-07T10:03:07;4.6;;;4.2;;
79592;SDS011;69074;45.164;9.704;2023-09-07T10:05:32;4.6;;;4.2;;
79592;SDS011;69074;45.164;9.704;2023-09-07T10:08:00;4.6;;;4.2;;
79592;SDS011;69074;45.164;9.704;2023-09-07T10:10:22;4.6;;;4.2;;
79592;SDS011;69074;45.164;9.704;2023-09-07T10:12:51;4.6;;;4.2;;
79592;SDS011;69074;45.164;9.704;2023-09-07T10:15:19;4.6;;;4.2;;
79592;SDS011;69074;45.164;9.704;2023-09-07T10:17:37;5.5;;;4.1;;
79592;SDS011;69074;45.164;9.704;2023-09-07T10:20:02;5.5;;;4.1;;
79592;SDS011;69074;45.164;9.704;2023-09-07T10:22:27;5.5;;;4.1;;
79592;SDS011;69074;45.164;9.704;2023-09-07T10:24:56;5.5;;;4.1;;
79592;SDS011;69074;45.164;9.704;2023-09-07T10:27:17;5.5;;;4.1;;
79592;SDS011;69074;45.164;9.704;2023-09-07T10:29:42;5.5;;;4.1;;
79592;SDS011;69074;45.164;9.704;2023-09-07T10:32:07;4.6;;;3.7;;
79592;SDS011;69074;45.164;9.704;2023-09-07T10:34:35;4.6;;;3.7;;
79592;SDS011;69074;45.164;9.704;2023-09-07T10:36:57;4.6;;;3.7;;
79592;SDS011;69074;45.164;9.704;2023-09-07T10:39:22;4.6;;;3.7;;
79592;SDS011;69074;45.164;9.704;2023-09-07T10:41:47;4.6;;;3.7;;
79592;SDS011;69074;45.164;9.704;2023-09-07T10:44:12;4.6;;;3.7;;
79592;SDS011;69074;45.164;9.704;2023-09-07T10:46:37;4.6;;;3.7;;
79592;SDS011;69074;45.164;9.704;2023-09-07T10:49:02;5.6;;;3.6;;
79592;SDS011;69074;45.164;9.704;2023-09-07T10:51:27;5.6;;;3.6;;
79592;SDS011;69074;45.164;9.704;2023-09-07T10:53:52;5.6;;;3.6;;
79592;SDS011;69074;45.164;9.704;2023-09-07T10:56:17;5.6;;;3.6;;
79592;SDS011;69074;45.164;9.704;2023-09-07T10:58:42;5.6;;;3.6;;
79592;SDS011;69074;45.164;9.704;2023-09-07T11:01:07;5.6;;;3.6;;
79592;SDS011;69074;45.164;9.704;2023-09-07T11:03:32;4.0;;;3.6;;
79592;SDS011;69074;45.164;9.704;2023-09-07T11:05:58;4.0;;;3.6;;
79592;SDS011;69074;45.164;9.704;2023-09-07T11:08:22;4.0;;;3.6;;
79592;SDS011;69074;45.164;9.704;2023-09-07T11:10:47;4.0;;;3.6;;
79592;SDS011;69074;45.164;9.704;2023-09-07T11:13:12;4.0;;;3.6;;
79592;SDS011;69074;45.164;9.704;2023-09-07T11:15:37;4.0;;;3.6;;
79592;SDS011;69074;45.164;9.704;2023-09-07T11:18:03;4.3;;;3.7;;
79592;SDS011;69074;45.164;9.704;2023-09-07T11:20:27;4.3;;;3.7;;
79592;SDS011;69074;45.164;9.704;2023-09-07T11:22:53;4.3;;;3.7;;
79592;SDS011;69074;45.164;9.704;2023-09-07T11:25:17;4.3;;;3.7;;
79592;SDS011;69074;45.164;9.704;2023-09-07T11:27:42;4.3;;;3.7;;
79592;SDS011;69074;45.164;9.704;2023-09-07T11:30:10;4.3;;;3.7;;
79592;SDS011;69074;45.164;9.704;2023-09-07T11:32:33;7.3;;;3.5;;
79592;SDS011;69074;45.164;9.704;2023-09-07T11:34:57;7.3;;;3.5;;
79592;SDS011;69074;45.164;9.704;2023-09-07T11:37:23;7.3;;;3.5;;
79592;SDS011;69074;45.164;9.704;2023-09-07T11:39:47;7.3;;;3.5;;
79592;SDS011;69074;45.164;9.704;2023-09-07T11:42:12;7.3;;;3.5;;
79592;SDS011;69074;45.164;9.704;2023-09-07T11:44:37;7.3;;;3.5;;
79592;SDS011;69074;45.164;9.704;2023-09-07T11:47:02;5.0;;;3.6;;
79592;SDS011;69074;45.164;9.704;2023-09-07T11:49:27;5.0;;;3.6;;
79592;SDS011;69074;45.164;9.704;2023-09-07T11:51:52;5.0;;;3.6;;
79592;SDS011;69074;45.164;9.704;2023-09-07T11:54:17;5.0;;;3.6;;
79592;SDS011;69074;45.164;9.704;2023-09-07T11:56:42;5.0;;;3.6;;
79592;SDS011;69074;45.164;9.704;2023-09-07T11:59:07;5.0;;;3.6;;
79592;SDS011;69074;45.164;9.704;2023-09-07T12:01:32;5.0;;;3.6;;
79592;SDS011;69074;45.164;9.704;2023-09-07T12:03:57;5.8;;;3.8;;
79592;SDS011;69074;45.164;9.704;2023-09-07T12:06:22;5.8;;;3.8;;
79592;SDS011;69074;45.164;9.704;2023-09-07T12:08:57;5.8;;;3.8;;
79592;SDS011;69074;45.164;9.704;2023-09-07T12:11:12;5.8;;;3.8;;
79592;SDS011;69074;45.164;9.704;2023-09-07T12:13:37;5.8;;;3.8;;
79592;SDS011;69074;45.164;9.704;2023-09-07T12:16:02;5.8;;;3.8;;
79592;SDS011;69074;45.164;9.704;2023-09-07T12:18:27;5.3;;;4.4;;
79592;SDS011;69074;45.164;9.704;2023-09-07T12:20:52;5.3;;;4.4;;
79592;SDS011;69074;45.164;9.704;2023-09-07T12:23:17;5.3;;;4.4;;
79592;SDS011;69074;45.164;9.704;2023-09-07T12:25:42;5.3;;;4.4;;
79592;SDS011;69074;45.164;9.704;2023-09-07T12:28:07;5.3;;;4.4;;
79592;SDS011;69074;45.164;9.704;2023-09-07T12:30:33;5.3;;;4.4;;
79592;SDS011;69074;45.164;9.704;2023-09-07T12:32:57;5.3;;;4.4;;
79592;SDS011;69074;45.164;9.704;2023-09-07T12:35:22;5.3;;;4.4;;
79592;SDS011;69074;45.164;9.704;2023-09-07T12:37:48;5.3;;;4.4;;
79592;SDS011;69074;45.164;9.704;2023-09-07T12:40:12;5.3;;;4.4;;
79592;SDS011;69074;45.164;9.704;2023-09-07T12:42:39;5.3;;;4.4;;
79592;SDS011;69074;45.164;9.704;2023-09-07T12:45:03;5.3;;;4.4;;
79592;SDS011;69074;45.164;9.704;2023-09-07T12:47:27;4.9;;;3.9;;
79592;SDS011;69074;45.164;9.704;2023-09-07T12:49:52;4.9;;;3.9;;
79592;SDS011;69074;45.164;9.704;2023-09-07T12:52:17;4.9;;;3.9;;
79592;SDS011;69074;45.164;9.704;2023-09-07T12:54:42;4.9;;;3.9;;
79592;SDS011;69074;45.164;9.704;2023-09-07T12:57:08;4.9;;;3.9;;
79592;SDS011;69074;45.164;9.704;2023-09-07T12:59:32;4.9;;;3.9;;
79592;SDS011;69074;45.164;9.704;2023-09-07T13:01:57;4.9;;;3.9;;
79592;SDS011;69074;45.164;9.704;2023-09-07T13:04:23;4.9;;;3.9;;
79592;SDS011;69074;45.164;9.704;2023-09-07T13:06:48;4.9;;;3.9;;
79592;SDS011;69074;45.164;9.704;2023-09-07T13:09:13;4.9;;;3.9;;
79592;SDS011;69074;45.164;9.704;2023-09-07T13:11:38;4.9;;;3.9;;
79592;SDS011;69074;45.164;9.704;2023-09-07T13:14:03;4.9;;;3.9;;
79592;SDS011;69074;45.164;9.704;2023-09-07T13:16:28;4.9;;;3.9;;
79592;SDS011;69074;45.164;9.704;2023-09-07T13:18:53;4.4;;;4.0;;
79592;SDS011;69074;45.164;9.704;2023-09-07T13:21:18;4.4;;;4.0;;
79592;SDS011;69074;45.164;9.704;2023-09-07T13:23:43;4.4;;;4.0;;
79592;SDS011;69074;45.164;9.704;2023-09-07T13:26:08;4.4;;;4.0;;
79592;SDS011;69074;45.164;9.704;2023-09-07T13:28:33;4.4;;;4.0;;
79592;SDS011;69074;45.164;9.704;2023-09-07T13:30:58;4.4;;;4.0;;
79592;SDS011;69074;45.164;9.704;2023-09-07T13:33:23;4.4;;;4.0;;
79592;SDS011;69074;45.164;9.704;2023-09-07T13:35:48;4.4;;;4.0;;
79592;SDS011;69074;45.164;9.704;2023-09-07T13:38:13;4.4;;;4.0;;
79592;SDS011;69074;45.164;9.704;2023-09-07T13:40:38;4.4;;;4.0;;
79592;SDS011;69074;45.164;9.704;2023-09-07T13:43:03;4.4;;;4.0;;
79592;SDS011;69074;45.164;9.704;2023-09-07T13:45:28;4.4;;;4.0;;
79592;SDS011;69074;45.164;9.704;2023-09-07T13:47:53;4.7;;;4.1;;
79592;SDS011;69074;45.164;9.704;2023-09-07T13:50:18;4.7;;;4.1;;
79592;SDS011;69074;45.164;9.704;2023-09-07T13:52:43;4.7;;;4.1;;
79592;SDS011;69074;45.164;9.704;2023-09-07T13:55:08;4.7;;;4.1;;
79592;SDS011;69074;45.164;9.704;2023-09-07T13:57:33;4.7;;;4.1;;
79592;SDS011;69074;45.164;9.704;2023-09-07T13:59:58;4.7;;;4.1;;
79592;SDS011;69074;45.164;9.704;2023-09-07T14:02:23;5.7;;;4.4;;
79592;SDS011;69074;45.164;9.704;2023-09-07T14:04:48;5.7;;;4.4;;
79592;SDS011;69074;45.164;9.704;2023-09-07T14:07:13;5.7;;;4.4;;
79592;SDS011;69074;45.164;9.704;2023-09-07T14:09:38;5.7;;;4.4;;
79592;SDS011;69074;45.164;9.704;2023-09-07T14:12:03;5.7;;;4.4;;
79592;SDS011;69074;45.164;9.704;2023-09-07T14:14:28;5.7;;;4.4;;
79592;SDS011;69074;45.164;9.704;2023-09-07T14:16:53;5.7;;;4.4;;
79592;SDS011;69074;45.164;9.704;2023-09-07T14:19:18;4.9;;;4.2;;
79592;SDS011;69074;45.164;9.704;2023-09-07T14:21:43;4.9;;;4.2;;
79592;SDS011;69074;45.164;9.704;2023-09-07T14:24:08;4.9;;;4.2;;
79592;SDS011;69074;45.164;9.704;2023-09-07T14:26:33;4.9;;;4.2;;
79592;SDS011;69074;45.164;9.704;2023-09-07T14:28:58;4.9;;;4.2;;
79592;SDS011;69074;45.164;9.704;2023-09-07T14:31:23;4.9;;;4.2;;
79592;SDS011;69074;45.164;9.704;2023-09-07T14:33:48;4.5;;;4.1;;
79592;SDS011;69074;45.164;9.704;2023-09-07T14:36:13;4.5;;;4.1;;
79592;SDS011;69074;45.164;9.704;2023-09-07T14:38:38;4.5;;;4.1;;
79592;SDS011;69074;45.164;9.704;2023-09-07T14:41:03;4.5;;;4.1;;
79592;SDS011;69074;45.164;9.704;2023-09-07T14:43:28;4.5;;;4.1;;
79592;SDS011;69074;45.164;9.704;2023-09-07T14:45:53;4.5;;;4.1;;
79592;SDS011;69074;45.164;9.704;2023-09-07T14:48:18;4.3;;;3.9;;
79592;SDS011;69074;45.164;9.704;2023-09-07T14:50:43;4.3;;;3.9;;